Time;durP1;ratioP1;P1;durP2;ratioP2;P2;SDS_P1;SDS_P2;PMS_P1;PMS_P2;Temp;Humidity;BMP_temperature;BMP_pressure;BME280_temperature;BME280_humidity;BME280_pressure;Samples;Min_cycle;Max_cycle;Signal;HPM_P1;HPM_P2
2022/02/17 00:01:35;;;;;;;40.13;13.30;;;;;;;6.18;69.08;100568.53;5113940;28;20066;-69
2022/02/17 00:04:20;;;;;;;39.75;17.77;;;;;;;6.04;68.40;100556.81;5113675;28;20062;-68
2022/02/17 00:07:05;;;;;;;26.95;12.77;;;;;;;5.99;69.05;100538.81;5114073;28;20505;-68
2022/02/17 00:09:50;;;;;;;36.40;12.40;;;;;;;6.10;68.15;100529.47;5111959;28;20042;-69
2022/02/17 00:12:35;;;;;;;29.58;13.60;;;;;;;5.90;68.17;100518.91;5114298;28;20411;-68
2022/02/17 00:15:20;;;;;;;29.60;15.82;;;;;;;6.00;69.12;100530.41;5113363;28;20415;-70
2022/02/17 00:18:21;;;;;;;22.38;12.30;;;;;;;6.20;67.28;100533.91;5111598;28;20055;-68
2022/02/17 00:21:05;;;;;;;26.33;15.93;;;;;;;6.20;67.34;100520.41;5108998;28;20054;-67
2022/02/17 00:23:50;;;;;;;21.17;12.63;;;;;;;6.24;65.79;100516.06;5114076;28;20046;-68
2022/02/17 00:26:36;;;;;;;16.23;11.73;;;;;;;6.20;65.52;100515.03;5114391;28;20047;-68
2022/02/17 00:29:21;;;;;;;20.35;12.30;;;;;;;6.33;65.05;100514.31;5115441;28;20047;-68
2022/02/17 00:32:07;;;;;;;28.70;13.38;;;;;;;6.31;64.93;100521.91;5114220;28;20046;-68
2022/02/17 00:34:51;;;;;;;22.27;16.58;;;;;;;6.25;64.09;100526.56;5113893;28;20051;-68
2022/02/17 00:37:36;;;;;;;18.33;12.13;;;;;;;6.14;64.76;100537.81;5114134;28;20506;-71
2022/02/17 00:40:22;;;;;;;28.92;15.77;;;;;;;6.14;66.93;100519.72;5115079;28;20043;-69
2022/02/17 00:43:08;;;;;;;19.40;13.07;;;;;;;6.19;65.46;100508.84;5114879;28;20055;-69
2022/02/17 00:45:52;;;;;;;18.98;12.27;;;;;;;5.83;66.81;100519.25;5115055;28;20062;-68
2022/02/17 00:48:41;;;;;;;24.85;16.17;;;;;;;6.15;66.94;100509.69;5114765;28;20043;-69
2022/02/17 00:51:26;;;;;;;17.83;12.88;;;;;;;6.28;64.13;100511.69;5118473;28;20054;-69
2022/02/17 00:54:11;;;;;;;17.48;12.45;;;;;;;6.15;63.63;100515.09;5114925;28;20054;-68
2022/02/17 00:57:02;;;;;;;26.65;14.82;;;;;;;6.08;63.56;100511.97;5114922;28;20051;-69
2022/02/17 00:59:46;;;;;;;23.17;15.65;;;;;;;6.20;63.20;100501.53;5115050;28;20034;-68
2022/02/17 01:02:31;;;;;;;18.70;12.95;;;;;;;6.07;64.16;100508.47;5116686;28;20117;-69
2022/02/17 01:05:18;;;;;;;28.40;16.33;;;;;;;5.92;65.63;100495.97;5114802;28;20043;-69
2022/02/17 01:08:03;;;;;;;18.80;11.90;;;;;;;6.15;66.66;100488.09;5118911;28;20552;-69
2022/02/17 01:10:48;;;;;;;38.55;15.80;;;;;;;5.89;65.80;100495.75;5115044;28;20047;-69
2022/02/17 01:13:37;;;;;;;44.35;17.20;;;;;;;5.64;67.22;100480.63;5114522;28;20062;-68
2022/02/17 01:16:22;;;;;;;41.38;17.10;;;;;;;5.62;68.31;100485.53;5113864;28;20058;-69
2022/02/17 01:19:07;;;;;;;21.60;14.38;;;;;;;5.48;68.91;100496.22;5113963;28;20062;-68
2022/02/17 01:21:53;;;;;;;32.20;17.27;;;;;;;5.50;69.25;100498.59;5113314;28;20066;-69
2022/02/17 01:24:38;;;;;;;32.80;13.38;;;;;;;5.37;69.82;100504.69;5113386;28;20066;-68
2022/02/17 01:27:24;;;;;;;61.42;16.60;;;;;;;5.32;70.93;100513.63;5113491;28;20058;-68
2022/02/17 01:30:10;;;;;;;50.10;13.15;;;;;;;5.35;70.35;100504.16;5113502;28;20051;-66
2022/02/17 01:32:55;;;;;;;57.60;18.42;;;;;;;5.31;71.03;100498.53;5113548;28;20118;-66
2022/02/17 01:35:41;;;;;;;43.30;17.13;;;;;;;5.37;70.37;100500.09;5112963;28;20666;-66
2022/02/17 01:38:26;;;;;;;31.25;13.38;;;;;;;5.34;70.37;100480.97;5113014;28;20434;-65
2022/02/17 01:41:12;;;;;;;34.00;12.48;;;;;;;5.25;70.64;100490.78;5112999;28;20046;-67
2022/02/17 01:44:02;;;;;;;48.88;17.77;;;;;;;5.18;70.51;100487.63;5115140;28;20043;-66
2022/02/17 01:46:47;;;;;;;36.80;18.90;;;;;;;5.28;70.84;100501.81;5113011;28;20051;-67
2022/02/17 01:49:32;;;;;;;35.60;13.75;;;;;;;5.34;71.25;100500.66;5113101;28;20047;-66
2022/02/17 01:52:21;;;;;;;33.30;17.65;;;;;;;5.71;70.51;100485.69;5112897;28;20050;-66
2022/02/17 01:55:08;;;;;;;56.88;18.02;;;;;;;5.46;70.60;100484.09;5112455;28;20506;-66
2022/02/17 01:57:55;;;;;;;54.67;18.23;;;;;;;5.25;71.36;100480.81;5112545;28;20407;-66
2022/02/17 02:00:46;;;;;;;36.40;17.92;;;;;;;5.41;71.32;100493.03;5112884;28;20043;-66
2022/02/17 02:03:31;;;;;;;53.28;18.75;;;;;;;5.24;71.51;100486.47;5111966;28;20439;-66
2022/02/17 02:06:17;;;;;;;35.25;18.27;;;;;;;5.26;72.01;100495.09;5112658;28;20431;-66
2022/02/17 02:09:16;;;;;;;31.77;17.13;;;;;;;5.34;71.45;100472.88;5112645;28;20054;-67
2022/02/17 02:12:14;;;;;;;39.65;18.50;;;;;;;5.31;72.24;100478.84;5112669;28;20058;-67
2022/02/17 02:15:02;;;;;;;48.55;19.20;;;;;;;5.28;72.41;100468.66;5112169;28;20526;-66
2022/02/17 02:17:49;;;;;;;38.78;18.80;;;;;;;5.43;72.68;100469.28;5112895;28;20046;-66
2022/02/17 02:20:34;;;;;;;32.05;14.48;;;;;;;5.55;71.93;100475.06;5112819;28;20070;-67
2022/02/17 02:23:19;;;;;;;38.17;14.63;;;;;;;5.70;72.08;100475.97;5112539;28;20550;-66
2022/02/17 02:26:08;;;;;;;36.20;20.30;;;;;;;5.77;70.09;100485.34;5112607;28;20055;-66
2022/02/17 02:28:55;;;;;;;31.08;14.10;;;;;;;5.70;70.33;100475.97;5112283;28;20066;-67
2022/02/17 02:31:40;;;;;;;40.92;20.33;;;;;;;5.76;71.14;100455.94;5104032;28;20046;-67
2022/02/17 02:34:25;;;;;;;31.23;16.40;;;;;;;5.83;70.12;100469.88;5112881;28;20074;-67
2022/02/17 02:37:12;;;;;;;44.55;19.27;;;;;;;5.88;69.18;100473.38;5113473;28;20507;-67
2022/02/17 02:39:58;;;;;;;32.75;18.80;;;;;;;5.85;68.85;100481.19;5113157;28;20423;-67
2022/02/17 02:42:45;;;;;;;38.97;15.02;;;;;;;5.89;68.09;100472.25;5113010;28;20399;-68
2022/02/17 02:45:32;;;;;;;33.75;17.05;;;;;;;5.77;70.31;100463.75;5113015;28;20502;-67
2022/02/17 02:48:19;;;;;;;35.17;18.02;;;;;;;5.94;68.60;100455.22;5113117;28;20050;-67
2022/02/17 02:51:04;;;;;;;30.08;13.05;;;;;;;6.04;68.17;100455.06;5112782;28;20055;-67
2022/02/17 02:53:49;;;;;;;28.75;12.20;;;;;;;6.09;67.46;100446.09;5112621;28;20502;-67
2022/02/17 02:56:34;;;;;;;49.97;18.42;;;;;;;5.75;70.65;100436.25;5112646;28;20055;-67
2022/02/17 02:59:19;;;;;;;31.67;14.13;;;;;;;5.84;70.04;100429.09;5112781;28;20059;-67
2022/02/17 03:02:05;;;;;;;36.90;17.48;;;;;;;5.99;70.49;100428.16;5112701;28;20049;-67
2022/02/17 03:04:50;;;;;;;46.90;18.27;;;;;;;6.00;68.78;100435.94;5112351;28;20055;-67
2022/02/17 03:07:36;;;;;;;28.52;16.95;;;;;;;6.04;69.37;100428.09;5112661;28;20411;-66
2022/02/17 03:10:22;;;;;;;31.95;14.52;;;;;;;6.10;68.56;100431.47;5112986;28;20050;-66
2022/02/17 03:13:07;;;;;;;38.88;18.20;;;;;;;6.09;68.75;100425.31;5113490;28;20498;-66
2022/02/17 03:15:52;;;;;;;41.80;18.33;;;;;;;6.12;68.29;100429.31;5116300;28;20085;-66
2022/02/17 03:18:37;;;;;;;28.80;14.75;;;;;;;6.01;68.98;100432.16;5116125;28;20046;-66
2022/02/17 03:21:26;;;;;;;32.67;17.92;;;;;;;6.06;68.53;100441.25;5116077;28;20047;-66
2022/02/17 03:24:10;;;;;;;32.72;14.05;;;;;;;6.12;69.57;100445.50;5115984;28;20505;-66
2022/02/17 03:26:59;;;;;;;45.15;18.40;;;;;;;6.15;69.63;100463.81;5115719;28;20113;-66
2022/02/17 03:29:44;;;;;;;28.85;14.48;;;;;;;5.93;70.91;100456.28;5121647;28;20426;-66
2022/02/17 03:32:29;;;;;;;31.50;13.23;;;;;;;5.67;71.29;100442.31;5116011;28;20047;-66
2022/02/17 03:35:17;;;;;;;35.15;18.15;;;;;;;5.73;70.34;100434.94;5115222;28;20080;-66
2022/02/17 03:38:02;;;;;;;43.33;17.15;;;;;;;5.88;70.61;100443.69;5116243;28;20043;-66
2022/02/17 03:40:50;;;;;;;35.10;16.92;;;;;;;5.96;70.04;100453.00;5113458;27;20402;-66
2022/02/17 03:43:38;;;;;;;27.80;17.38;;;;;;;5.96;69.85;100458.41;5115639;28;20047;-66
2022/02/17 03:46:24;;;;;;;38.22;17.30;;;;;;;5.96;69.64;100456.50;5115419;28;20070;-66
2022/02/17 03:49:09;;;;;;;;;;;;;;;5.93;71.63;100451.72;5118431;28;20055;-66
2022/02/17 03:51:54;;;;;;;35.47;18.10;;;;;;;6.05;70.99;100442.34;5114825;28;19912;-71
2022/02/17 03:54:38;;;;;;;25.63;13.82;;;;;;;6.14;71.49;100437.94;5114868;28;20039;-69
2022/02/17 03:57:27;;;;;;;39.28;18.50;;;;;;;6.08;70.83;100444.47;5114520;28;20047;-69
2022/02/17 04:00:16;;;;;;;41.85;19.45;;;;;;;6.24;70.74;100459.38;5114751;28;20055;-69
2022/02/17 04:03:04;;;;;;;46.40;18.95;;;;;;;6.18;70.69;100460.53;5117115;27;20058;-69
2022/02/17 04:05:52;;;;;;;38.80;17.85;;;;;;;6.16;70.12;100443.81;5120597;27;20526;-69
2022/02/17 04:08:37;;;;;;;39.63;16.77;;;;;;;6.23;70.08;100444.25;5130969;27;20046;-69
2022/02/17 04:11:22;;;;;;;49.00;13.88;;;;;;;5.91;71.40;100444.97;5134726;27;20046;-68
2022/02/17 04:14:07;;;;;;;38.53;18.25;;;;;;;6.21;69.04;100449.13;5120204;27;20054;-68
2022/02/17 04:17:00;;;;;;;35.03;18.08;;;;;;;6.23;68.63;100441.56;5113211;27;20561;-68
2022/02/17 04:20:09;;;;;;;37.95;17.85;;;;;;;6.01;69.71;100436.75;5100681;28;20063;-68
2022/02/17 04:23:25;;;;;;;42.75;18.52;;;;;;;5.96;69.89;100434.91;5093815;28;20055;-68
2022/02/17 04:26:14;;;;;;;43.65;17.23;;;;;;;6.12;68.77;100440.09;5093331;28;20055;-68
2022/02/17 04:29:10;;;;;;;;;;;;;;;5.89;71.02;100444.47;5094336;28;20051;-69
2022/02/17 04:32:07;;;;;;;42.45;17.50;;;;;;;5.80;71.87;100443.47;5093955;28;19916;-68
2022/02/17 04:34:53;;;;;;;35.47;17.70;;;;;;;5.85;70.85;100430.72;5093474;28;20047;-68
2022/02/17 04:37:38;;;;;;;28.92;15.98;;;;;;;6.04;69.63;100435.38;5093738;28;20047;-69
2022/02/17 04:42:18;;;;;;;27.83;13.40;;;;;;;6.13;68.92;100428.22;5093708;28;20161;-68
2022/02/17 04:43:30;;;;;;;42.85;19.23;;;;;;;5.84;70.29;100429.09;5099952;28;20051;-68
2022/02/17 04:46:15;;;;;;;27.65;14.07;;;;;;;6.05;69.88;100409.97;5110415;28;20074;-68
2022/02/17 04:49:00;;;;;;;22.15;13.57;;;;;;;6.19;69.68;100408.16;5113785;28;20050;-68
2022/02/17 04:51:45;;;;;;;27.23;13.57;;;;;;;6.11;69.68;100396.09;5113789;28;20050;-68
2022/02/17 04:54:36;;;;;;;30.92;16.58;;;;;;;6.25;68.85;100406.97;5113439;28;20047;-68
2022/02/17 04:57:20;;;;;;;;;;;;;;;6.15;69.57;100423.31;5114134;28;20502;-68
2022/02/17 05:00:06;;;;;;;52.08;19.10;;;;;;;6.05;70.10;100436.94;5113681;28;19916;-68
2022/02/17 05:02:56;;;;;;;42.55;19.73;;;;;;;5.92;70.28;100425.81;5113871;28;20401;-68
2022/02/17 05:05:52;;;;;;;27.55;12.63;;;;;;;6.11;69.91;100441.19;5113291;28;20066;-68
2022/02/17 05:08:37;;;;;;;42.20;20.15;;;;;;;5.85;70.95;100427.22;5113554;28;20506;-68
2022/02/17 05:11:22;;;;;;;21.55;14.10;;;;;;;5.96;69.54;100434.91;5106503;28;20051;-68
2022/02/17 05:14:10;;;;;;;37.00;16.90;;;;;;;5.79;70.54;100450.75;5113118;28;20051;-68
2022/02/17 05:16:55;;;;;;;41.25;18.73;;;;;;;5.80;71.32;100438.88;5107078;28;20419;-68
2022/02/17 05:19:44;;;;;;;36.95;18.00;;;;;;;6.01;70.12;100436.75;5110352;27;20046;-68
2022/02/17 05:22:57;;;;;;;39.83;18.55;;;;;;;5.70;72.17;100430.91;5114687;28;20065;-68
2022/02/17 05:26:05;;;;;;;44.35;19.27;;;;;;;5.54;72.90;100429.50;5108413;28;20043;-68
2022/02/17 05:29:00;;;;;;;38.00;19.33;;;;;;;5.46;73.31;100449.03;5108177;28;20525;-69
2022/02/17 05:32:05;;;;;;;45.15;19.48;;;;;;;5.60;72.99;100441.84;5108326;28;20066;-68
2022/02/17 05:34:57;;;;;;;42.95;17.40;;;;;;;5.52;73.76;100464.06;5106771;28;20054;-68
2022/02/17 05:37:55;;;;;;;42.38;19.65;;;;;;;5.49;74.23;100449.25;5112110;28;20051;-68
2022/02/17 05:40:59;;;;;;;46.25;20.13;;;;;;;4.59;75.62;100470.63;5113150;28;20046;-68
2022/02/17 05:43:44;;;;;;;41.13;15.55;;;;;;;3.95;79.36;100446.59;5098224;28;20522;-67
2022/02/17 05:46:29;;;;;;;59.47;17.02;;;;;;;3.27;83.29;100429.41;5094702;28;20063;-67
2022/02/17 05:49:14;;;;;;;51.80;16.52;;;;;;;3.53;84.85;100438.16;5100065;28;20047;-68
2022/02/17 05:51:59;;;;;;;50.85;17.45;;;;;;;3.71;84.32;100424.91;5102676;28;20043;-67
2022/02/17 05:54:44;;;;;;;56.53;17.85;;;;;;;3.47;84.36;100432.00;5110855;27;20399;-68
2022/02/17 05:57:29;;;;;;;54.97;17.63;;;;;;;3.65;84.99;100444.84;5119043;27;20055;-67
2022/02/17 06:00:14;;;;;;;33.72;16.05;;;;;;;3.75;84.23;100420.59;5104906;28;20047;-67
2022/02/17 06:02:59;;;;;;;71.78;22.33;;;;;;;4.05;82.07;100418.81;5094950;28;20047;-67
2022/02/17 06:05:44;;;;;;;60.63;17.08;;;;;;;3.98;81.88;100448.69;5094554;28;20051;-66
2022/02/17 06:08:29;;;;;;;44.40;15.65;;;;;;;3.58;83.46;100463.16;5098336;27;20411;-68
2022/02/17 06:11:14;;;;;;;33.05;16.25;;;;;;;3.40;85.05;100445.72;5108667;28;20424;-68
2022/02/17 06:13:59;;;;;;;39.90;15.32;;;;;;;3.23;85.50;100465.97;5098401;28;20054;-68
2022/02/17 06:16:44;;;;;;;59.45;18.30;;;;;;;3.41;86.86;100474.22;5097202;28;20043;-70
2022/02/17 06:19:29;;;;;;;54.90;19.73;;;;;;;3.20;86.72;100456.53;5112200;28;20047;-67
2022/02/17 06:22:14;;;;;;;46.05;19.52;;;;;;;3.77;85.36;100450.69;5112168;28;20050;-69
2022/02/17 06:24:59;;;;;;;44.13;17.52;;;;;;;3.53;84.14;100451.63;5112076;28;20101;-67
2022/02/17 06:27:44;;;;;;;60.33;18.05;;;;;;;3.39;86.02;100446.84;5091930;28;20047;-67
2022/02/17 06:30:30;;;;;;;51.42;19.52;;;;;;;3.72;84.86;100456.09;5096332;28;20546;-67
2022/02/17 06:33:15;;;;;;;56.85;24.80;;;;;;;4.18;84.19;100475.50;5091806;28;20237;-67
2022/02/17 06:35:59;;;;;;;58.92;18.48;;;;;;;3.90;84.81;100470.00;5095176;28;20039;-67
2022/02/17 06:38:45;;;;;;;42.45;20.98;;;;;;;3.78;85.40;100446.94;5101243;28;20411;-67
2022/02/17 06:41:30;;;;;;;60.05;24.55;;;;;;;4.05;84.99;100446.53;5110431;27;20510;-67
2022/02/17 06:44:15;;;;;;;118.93;47.50;;;;;;;3.82;84.05;100442.59;5111369;28;20047;-67
2022/02/17 06:47:00;;;;;;;72.90;21.30;;;;;;;3.62;85.97;100461.53;5111889;28;20043;-67
2022/02/17 06:49:45;;;;;;;45.10;18.30;;;;;;;3.65;86.50;100476.31;5112982;28;20506;-67
2022/02/17 06:52:30;;;;;;;55.67;19.23;;;;;;;3.48;87.59;100484.69;5115012;28;20046;-67
2022/02/17 06:55:15;;;;;;;51.47;21.13;;;;;;;3.62;87.33;100496.47;5115350;28;20050;-67
2022/02/17 06:58:00;;;;;;;51.65;21.63;;;;;;;3.55;86.96;100505.91;5115515;28;20047;-67
2022/02/17 07:00:45;;;;;;;67.50;26.85;;;;;;;3.28;87.79;100507.06;5115598;28;20039;-67
2022/02/17 07:03:30;;;;;;;51.55;20.10;;;;;;;3.42;88.10;100501.91;5100953;28;20093;-67
2022/02/17 07:06:15;;;;;;;37.00;18.88;;;;;;;3.48;87.44;100494.63;5111780;28;20518;-67
2022/02/17 07:09:01;;;;;;;52.88;28.13;;;;;;;3.62;87.57;100487.59;5108806;28;20047;-67
2022/02/17 07:11:46;;;;;;;59.85;25.92;;;;;;;3.92;88.07;100473.22;5113441;28;20050;-66
2022/02/17 07:14:31;;;;;;;61.38;21.73;;;;;;;3.88;87.18;100489.09;5111185;28;20058;-67
2022/02/17 07:17:16;;;;;;;50.40;23.58;;;;;;;3.61;87.27;100494.84;5115322;28;20246;-67
2022/02/17 07:20:01;;;;;;;45.15;21.08;;;;;;;3.83;87.19;100502.56;5112650;28;20050;-67
2022/02/17 07:22:45;;;;;;;42.50;19.55;;;;;;;3.85;87.42;100508.50;5114913;28;20054;-67
2022/02/17 07:25:31;;;;;;;48.88;20.27;;;;;;;4.19;86.86;100487.88;5115119;28;20050;-66
2022/02/17 07:28:16;;;;;;;67.75;25.75;;;;;;;4.44;84.30;100494.16;5115292;28;20046;-67
2022/02/17 07:31:02;;;;;;;55.20;24.60;;;;;;;4.47;84.68;100497.09;5111447;28;20051;-67
2022/02/17 07:33:47;;;;;;;43.80;18.27;;;;;;;4.29;84.55;100495.06;5111958;28;20062;-67
2022/02/17 07:36:32;;;;;;;31.25;16.17;;;;;;;4.19;84.58;100487.88;5114915;28;20042;-67
2022/02/17 07:39:17;;;;;;;37.88;16.42;;;;;;;4.03;84.86;100486.34;5109985;28;20066;-67
2022/02/17 07:42:02;;;;;;;45.60;18.70;;;;;;;4.38;86.20;100498.78;5107773;28;20043;-67
2022/02/17 07:44:47;;;;;;;57.20;23.23;;;;;;;4.16;86.29;100509.97;5114442;28;20526;-67
2022/02/17 07:47:32;;;;;;;37.30;18.13;;;;;;;4.35;85.12;100512.81;5103987;28;20050;-67
2022/02/17 07:50:19;;;;;;;43.80;20.83;;;;;;;4.51;84.82;100505.44;5112769;28;20514;-66
2022/02/17 07:53:04;;;;;;;64.18;28.83;;;;;;;5.10;83.41;100507.91;5114672;28;20549;-67
2022/02/17 07:55:49;;;;;;;47.58;20.25;;;;;;;4.95;82.79;100508.84;5112262;28;20169;-67
2022/02/17 07:58:37;;;;;;;67.00;27.88;;;;;;;4.71;83.91;100494.50;5114417;28;20054;-67
2022/02/17 08:01:22;;;;;;;51.83;24.33;;;;;;;5.10;82.37;100508.72;5109978;28;20034;-67
2022/02/17 08:04:07;;;;;;;46.55;20.25;;;;;;;5.13;82.19;100494.66;5114285;28;20406;-67
2022/02/17 08:06:52;;;;;;;40.17;20.52;;;;;;;5.42;81.13;100501.94;5114637;28;20035;-67
2022/02/17 08:09:37;;;;;;;41.20;20.80;;;;;;;5.65;80.31;100527.28;5112785;28;20522;-67
2022/02/17 08:12:22;;;;;;;;;;;;;;;5.88;77.66;100511.13;5110886;28;20047;-67
2022/02/17 08:15:08;;;;;;;45.08;23.50;;;;;;;6.04;77.04;100513.63;5113960;28;19911;-67
2022/02/17 08:17:53;;;;;;;41.50;23.13;;;;;;;6.11;76.40;100514.88;5112137;28;20047;-67
2022/02/17 08:20:38;;;;;;;30.17;17.23;;;;;;;6.32;74.67;100526.22;5109817;28;20094;-67
2022/02/17 08:23:23;;;;;;;40.13;20.83;;;;;;;5.60;76.93;100541.63;5113444;28;20038;-67
2022/02/17 08:26:08;;;;;;;51.17;18.30;;;;;;;5.44;78.35;100537.47;5111648;28;20051;-67
2022/02/17 08:28:58;;;;;;;36.55;18.73;;;;;;;5.63;79.27;100535.69;5110993;28;20043;-67
2022/02/17 08:31:43;;;;;;;59.05;26.70;;;;;;;5.23;80.60;100525.31;5112369;28;20522;-67
2022/02/17 08:34:28;;;;;;;35.42;19.15;;;;;;;5.08;80.67;100518.97;5113583;28;20039;-66
2022/02/17 08:37:13;;;;;;;31.67;18.63;;;;;;;5.30;80.52;100520.38;5105163;28;20051;-67
2022/02/17 08:39:58;;;;;;;30.85;18.95;;;;;;;5.62;77.58;100533.25;5113827;28;20043;-67
2022/02/17 08:42:43;;;;;;;35.25;20.42;;;;;;;6.19;76.11;100537.75;5114007;28;20438;-67
2022/02/17 08:45:28;;;;;;;30.00;17.35;;;;;;;5.68;77.46;100535.63;5109869;28;20046;-67
2022/02/17 08:48:13;;;;;;;34.03;18.10;;;;;;;5.58;77.90;100538.44;5113543;28;20058;-67
2022/02/17 08:50:58;;;;;;;32.67;18.25;;;;;;;5.72;79.14;100544.75;5113709;28;20513;-67
2022/02/17 08:53:44;;;;;;;50.22;24.00;;;;;;;6.03;78.12;100539.81;5109687;27;20039;-67
2022/02/17 08:56:29;;;;;;;57.67;26.83;;;;;;;5.67;78.42;100542.09;5106971;28;20038;-67
2022/02/17 08:59:14;;;;;;;36.30;18.60;;;;;;;5.65;79.76;100530.78;5116454;27;20490;-67
2022/02/17 09:01:59;;;;;;;47.25;23.17;;;;;;;5.78;78.33;100518.53;5113214;28;20054;-67
2022/02/17 09:04:44;;;;;;;40.42;19.52;;;;;;;5.60;78.70;100515.47;5113266;28;20510;-67
2022/02/17 09:07:29;;;;;;;44.90;20.55;;;;;;;5.87;77.98;100520.31;5113543;28;20408;-67
2022/02/17 09:10:14;;;;;;;45.83;22.85;;;;;;;6.04;76.60;100524.44;5113400;28;20058;-66
2022/02/17 09:12:59;;;;;;;31.95;18.48;;;;;;;5.52;78.77;100523.41;5113193;28;20077;-67
2022/02/17 09:15:45;;;;;;;33.85;18.90;;;;;;;5.68;78.19;100521.34;5112984;28;20518;-67
2022/02/17 09:18:31;;;;;;;35.42;19.63;;;;;;;5.84;77.54;100523.53;5113212;28;20050;-67
2022/02/17 09:21:17;;;;;;;50.17;25.65;;;;;;;5.78;77.87;100527.41;5113174;28;20046;-66
2022/02/17 09:24:04;;;;;;;35.53;19.17;;;;;;;5.88;77.58;100527.31;5113092;28;20058;-67
2022/02/17 09:26:49;;;;;;;45.83;25.23;;;;;;;5.65;77.71;100536.19;5112996;28;20046;-67
2022/02/17 09:29:34;;;;;;;38.92;19.10;;;;;;;5.93;78.00;100529.16;5112938;28;20046;-67
2022/02/17 09:32:19;;;;;;;54.47;26.13;;;;;;;5.97;77.00;100519.38;5113059;28;20050;-67
2022/02/17 09:35:05;;;;;;;40.65;21.33;;;;;;;5.77;78.01;100514.22;5111284;28;20047;-67
2022/02/17 09:37:49;;;;;;;55.45;28.23;;;;;;;5.83;77.85;100502.28;5105810;28;20055;-66
2022/02/17 09:40:34;;;;;;;46.15;21.85;;;;;;;5.88;77.92;100497.66;5100521;27;20038;-67
2022/02/17 09:43:24;;;;;;;32.83;18.67;;;;;;;5.43;78.90;100503.53;5112577;28;20046;-66
2022/02/17 09:46:12;;;;;;;52.38;26.00;;;;;;;5.62;81.32;100504.41;5112475;28;20051;-66
2022/02/17 09:49:01;;;;;;;57.03;26.88;;;;;;;5.71;78.86;100510.75;5112727;28;20068;-67
2022/02/17 09:51:47;;;;;;;49.63;28.35;;;;;;;6.15;77.74;100488.91;5112562;28;20414;-67
2022/02/17 09:54:33;;;;;;;50.05;25.90;;;;;;;6.60;75.15;100492.84;5110939;28;20075;-67
2022/02/17 09:57:22;;;;;;;;;;;;;;;6.34;75.72;100480.81;5110567;28;20047;-67
2022/02/17 10:00:11;;;;;;;44.10;25.73;;;;;;;6.14;77.16;100489.22;5112246;28;19916;-67
2022/02/17 10:03:23;;;;;;;48.45;26.27;;;;;;;6.61;75.76;100507.94;5105838;28;20039;-67
2022/02/17 10:06:11;;;;;;;44.13;25.65;;;;;;;6.87;74.22;100517.25;5099761;28;20042;-67
2022/02/17 10:09:07;;;;;;;43.13;23.92;;;;;;;6.63;74.35;100510.34;5108725;28;20051;-67
2022/02/17 10:11:53;;;;;;;43.67;21.17;;;;;;;6.51;75.06;100518.09;5097243;28;20047;-67
2022/02/17 10:14:38;;;;;;;44.25;24.10;;;;;;;5.83;77.41;100513.88;5112060;28;20051;-67
2022/02/17 10:17:23;;;;;;;48.78;25.13;;;;;;;5.77;79.66;100503.41;5111938;28;20058;-67
2022/02/17 10:20:08;;;;;;;44.97;26.50;;;;;;;6.12;77.71;100489.50;5111252;28;20046;-67
2022/02/17 10:23:05;;;;;;;45.35;23.38;;;;;;;6.10;77.48;100494.38;5110852;28;20507;-67
2022/02/17 10:26:11;;;;;;;51.15;28.33;;;;;;;6.05;78.47;100493.63;5091567;28;20518;-67
2022/02/17 10:29:03;;;;;;;51.08;26.50;;;;;;;5.92;77.76;100498.66;5091846;28;20055;-67
2022/02/17 10:31:48;;;;;;;46.75;26.83;;;;;;;5.86;78.97;100505.19;5097496;28;20428;-67
2022/02/17 10:34:37;;;;;;;37.22;21.25;;;;;;;6.11;77.63;100498.69;5091874;28;20055;-67
2022/02/17 10:37:49;;;;;;;52.58;30.15;;;;;;;6.44;76.40;100494.19;5091752;28;20539;-67
2022/02/17 10:40:36;;;;;;;49.38;27.88;;;;;;;6.21;77.90;100492.34;5099960;28;20051;-67
2022/02/17 10:43:26;;;;;;;50.08;27.60;;;;;;;6.41;76.63;100495.56;5104262;28;20047;-67
2022/02/17 10:46:11;;;;;;;51.45;27.60;;;;;;;6.39;75.09;100496.94;5102285;28;20046;-67
2022/02/17 10:48:56;;;;;;;36.50;22.58;;;;;;;6.46;75.93;100497.38;5111805;28;20529;-67
2022/02/17 10:51:41;;;;;;;38.70;20.33;;;;;;;6.29;76.25;100489.00;5111915;28;20059;-67
2022/02/17 10:54:27;;;;;;;55.63;28.80;;;;;;;6.33;76.02;100476.50;5111735;28;20050;-67
2022/02/17 10:57:12;;;;;;;39.92;21.58;;;;;;;6.42;76.67;100496.34;5112013;28;20047;-67
2022/02/17 11:00:12;;;;;;;41.13;22.60;;;;;;;6.55;76.11;100490.22;5111965;28;20100;-67
2022/02/17 11:02:57;;;;;;;44.97;27.48;;;;;;;6.48;76.23;100484.38;5112217;28;20055;-67
2022/02/17 11:05:43;;;;;;;38.92;19.20;;;;;;;6.50;75.60;100481.41;5111645;28;20403;-67
2022/02/17 11:08:28;;;;;;;50.35;26.25;;;;;;;6.08;76.91;100487.66;5108309;28;20055;-67
2022/02/17 11:11:17;;;;;;;43.08;25.98;;;;;;;6.23;76.47;100493.66;5102987;28;20039;-68
2022/02/17 11:14:02;;;;;;;43.80;25.95;;;;;;;6.23;76.27;100499.06;5106319;28;20058;-66
2022/02/17 11:16:47;;;;;;;34.67;20.58;;;;;;;6.28;76.26;100482.00;5102301;28;20430;-68
2022/02/17 11:19:33;;;;;;;32.75;19.65;;;;;;;6.45;75.52;100490.34;5111704;28;20059;-67
2022/02/17 11:22:20;;;;;;;46.25;25.55;;;;;;;6.35;75.73;100483.22;5108363;28;20043;-67
2022/02/17 11:25:05;;;;;;;53.97;26.95;;;;;;;6.20;76.02;100488.84;5111393;28;20043;-67
2022/02/17 11:27:59;;;;;;;31.02;18.88;;;;;;;6.23;76.34;100471.25;5111927;28;20046;-67
2022/02/17 11:30:57;;;;;;;36.10;19.75;;;;;;;6.23;75.44;100469.38;5093588;28;20051;-67
2022/02/17 11:33:55;;;;;;;38.47;22.30;;;;;;;6.77;74.20;100470.69;5111409;28;20529;-67
2022/02/17 11:36:40;;;;;;;45.40;27.13;;;;;;;6.43;75.32;100462.84;5114482;28;20071;-67
2022/02/17 11:39:57;;;;;;;41.42;21.33;;;;;;;6.62;74.86;100462.81;5115457;28;20534;-67
2022/02/17 11:42:46;;;;;;;46.22;25.05;;;;;;;6.70;75.36;100456.75;5110546;28;20034;-67
2022/02/17 11:45:44;;;;;;;39.90;22.60;;;;;;;6.65;73.95;100454.94;5114748;28;20051;-67
2022/02/17 11:48:40;;;;;;;44.30;26.05;;;;;;;6.98;72.74;100452.22;5115124;28;20046;-67
2022/02/17 11:51:27;;;;;;;39.75;22.30;;;;;;;6.63;74.20;100457.13;5114948;28;20392;-67
2022/02/17 11:54:17;;;;;;;29.23;17.92;;;;;;;7.03;72.74;100452.94;5114765;28;20055;-67
2022/02/17 11:57:02;;;;;;;44.92;24.23;;;;;;;6.87;73.42;100452.41;5114732;28;20050;-67
2022/02/17 11:59:47;;;;;;;40.75;23.63;;;;;;;6.87;72.07;100438.88;5114925;28;20050;-67
2022/02/17 12:02:41;;;;;;;31.00;18.77;;;;;;;6.97;72.34;100445.19;5109763;27;20035;-67
2022/02/17 12:05:28;;;;;;;43.20;23.73;;;;;;;6.87;72.50;100436.19;5107959;28;20051;-67
2022/02/17 12:08:24;;;;;;;41.53;25.52;;;;;;;7.61;69.63;100430.72;5102428;28;20046;-67
2022/02/17 12:11:31;;;;;;;35.22;21.83;;;;;;;7.79;69.50;100423.56;5110387;28;20055;-67
2022/02/17 12:14:20;;;;;;;40.63;24.13;;;;;;;7.73;69.32;100425.59;5114433;28;20399;-67
2022/02/17 12:17:07;;;;;;;39.13;22.75;;;;;;;7.50;70.71;100438.25;5114470;28;20506;-67
2022/02/17 12:20:17;;;;;;;34.42;21.55;;;;;;;8.02;68.04;100427.94;5107783;28;20054;-67
2022/02/17 12:23:07;;;;;;;40.90;23.35;;;;;;;7.58;69.38;100415.88;5105291;28;20063;-67
2022/02/17 12:25:54;;;;;;;42.08;24.30;;;;;;;7.82;69.67;100412.16;5113649;28;20051;-67
2022/02/17 12:28:39;;;;;;;38.55;22.85;;;;;;;7.09;72.18;100415.78;5114058;28;20050;-67
2022/02/17 12:31:38;;;;;;;32.47;17.65;;;;;;;7.38;71.40;100405.47;5114080;28;20051;-67
2022/02/17 12:34:24;;;;;;;43.47;23.40;;;;;;;7.13;71.66;100395.97;5113929;28;20054;-67
2022/02/17 12:37:17;;;;;;;38.25;22.35;;;;;;;7.10;71.76;100393.06;5113972;28;20042;-67
2022/02/17 12:40:02;;;;;;;38.30;24.63;;;;;;;6.71;72.77;100393.50;5114034;28;20050;-67
2022/02/17 12:42:51;;;;;;;32.13;18.98;;;;;;;6.78;74.12;100388.53;5114059;28;20498;-67
2022/02/17 12:45:39;;;;;;;38.50;24.20;;;;;;;6.87;72.62;100376.72;5113324;28;20046;-67
2022/02/17 12:48:28;;;;;;;45.78;25.20;;;;;;;6.92;73.61;100372.31;5113533;28;20063;-67
2022/02/17 12:51:31;;;;;;;41.17;24.90;;;;;;;7.41;72.29;100374.34;5113233;28;20399;-67
2022/02/17 12:54:17;;;;;;;42.63;23.52;;;;;;;7.21;71.71;100375.56;5110731;28;20039;-67